sensor_id;sensor_type;location;lat;lon;timestamp;noise_LAeq;noise_LA_min;noise_LA_max;noise_LA01;noise_LA95
69609;Laerm;56815;52.320;4.858;2024-03-22T00:00:01;31.54;29.81;34.06;;
69609;Laerm;56815;52.320;4.858;2024-03-22T00:00:12;38.27;29.84;56.39;;
69609;Laerm;56815;52.320;4.858;2024-03-22T00:00:22;31.77;29.72;35.83;;
69609;Laerm;56815;52.320;4.858;2024-03-22T00:00:33;31.83;29.88;34.61;;
69609;Laerm;56815;52.320;4.858;2024-03-22T00:00:43;32.17;30.21;37.60;;
69609;Laerm;56815;52.320;4.858;2024-03-22T00:00:53;31.60;30.30;35.73;;
69609;Laerm;56815;52.320;4.858;2024-03-22T00:01:04;33.32;30.11;45.16;;
69609;Laerm;56815;52.320;4.858;2024-03-22T00:01:14;31.81;29.66;36.89;;
69609;Laerm;56815;52.320;4.858;2024-03-22T00:01:24;31.75;29.47;35.84;;
69609;Laerm;56815;52.320;4.858;2024-03-22T00:01:34;31.82;30.52;35.50;;
69609;Laerm;56815;52.320;4.858;2024-03-22T00:01:45;31.80;30.27;34.97;;
69609;Laerm;56815;52.320;4.858;2024-03-22T00:01:55;31.73;29.86;35.10;;
69609;Laerm;56815;52.320;4.858;2024-03-22T00:02:06;32.04;30.40;35.34;;
69609;Laerm;56815;52.320;4.858;2024-03-22T00:02:16;32.29;30.70;34.42;;
69609;Laerm;56815;52.320;4.858;2024-03-22T00:02:27;31.55;30.21;35.46;;
69609;Laerm;56815;52.320;4.858;2024-03-22T00:02:37;31.53;30.03;35.84;;
69609;Laerm;56815;52.320;4.858;2024-03-22T00:02:48;32.15;30.44;34.26;;
69609;Laerm;56815;52.320;4.858;2024-03-22T00:02:58;32.81;31.33;34.79;;
69609;Laerm;56815;52.320;4.858;2024-03-22T00:03:08;32.15;30.23;35.19;;
69609;Laerm;56815;52.320;4.858;2024-03-22T00:03:18;31.77;30.33;34.55;;
69609;Laerm;56815;52.320;4.858;2024-03-22T00:03:30;31.81;30.07;36.24;;
69609;Laerm;56815;52.320;4.858;2024-03-22T00:03:41;31.67;30.13;38.06;;
69609;Laerm;56815;52.320;4.858;2024-03-22T00:03:52;31.44;29.83;34.79;;
69609;Laerm;56815;52.320;4.858;2024-03-22T00:04:02;31.64;30.10;35.19;;
69609;Laerm;56815;52.320;4.858;2024-03-22T00:04:13;31.57;29.97;34.61;;
69609;Laerm;56815;52.320;4.858;2024-03-22T00:04:23;32.00;30.14;36.23;;
69609;Laerm;56815;52.320;4.858;2024-03-22T00:04:34;35.73;30.39;45.71;;
69609;Laerm;56815;52.320;4.858;2024-03-22T00:04:44;41.35;31.64;50.52;;
69609;Laerm;56815;52.320;4.858;2024-03-22T00:04:54;34.47;31.16;39.42;;
69609;Laerm;56815;52.320;4.858;2024-03-22T00:05:04;34.66;30.17;40.88;;
69609;Laerm;56815;52.320;4.858;2024-03-22T00:05:15;34.73;30.92;39.01;;
69609;Laerm;56815;52.320;4.858;2024-03-22T00:05:26;31.99;29.50;36.93;;
69609;Laerm;56815;52.320;4.858;2024-03-22T00:05:37;32.11;30.26;35.04;;
69609;Laerm;56815;52.320;4.858;2024-03-22T00:05:47;31.57;30.15;35.02;;
69609;Laerm;56815;52.320;4.858;2024-03-22T00:05:57;31.48;29.93;34.80;;
69609;Laerm;56815;52.320;4.858;2024-03-22T00:06:08;31.64;30.19;36.28;;
69609;Laerm;56815;52.320;4.858;2024-03-22T00:06:18;32.17;29.76;36.56;;
69609;Laerm;56815;52.320;4.858;2024-03-22T00:06:28;32.21;30.07;36.43;;
69609;Laerm;56815;52.320;4.858;2024-03-22T00:06:39;37.96;30.36;47.34;;
69609;Laerm;56815;52.320;4.858;2024-03-22T00:06:49;33.17;30.54;43.33;;
69609;Laerm;56815;52.320;4.858;2024-03-22T00:07:00;31.90;29.61;41.70;;
69609;Laerm;56815;52.320;4.858;2024-03-22T00:07:10;32.54;29.73;41.82;;
69609;Laerm;56815;52.320;4.858;2024-03-22T00:07:21;32.43;30.56;35.94;;
69609;Laerm;56815;52.320;4.858;2024-03-22T00:07:31;31.87;29.95;34.21;;
69609;Laerm;56815;52.320;4.858;2024-03-22T00:07:41;32.83;30.88;39.11;;
69609;Laerm;56815;52.320;4.858;2024-03-22T00:07:53;32.47;30.39;35.87;;
69609;Laerm;56815;52.320;4.858;2024-03-22T00:08:03;31.42;29.91;35.89;;
69609;Laerm;56815;52.320;4.858;2024-03-22T00:08:14;31.02;29.41;33.37;;
69609;Laerm;56815;52.320;4.858;2024-03-22T00:08:24;32.37;29.53;44.51;;
69609;Laerm;56815;52.320;4.858;2024-03-22T00:08:35;32.22;29.52;45.11;;
69609;Laerm;56815;52.320;4.858;2024-03-22T00:08:45;32.13;29.90;41.45;;
69609;Laerm;56815;52.320;4.858;2024-03-22T00:08:55;32.14;30.01;39.91;;
69609;Laerm;56815;52.320;4.858;2024-03-22T00:09:05;32.98;30.51;43.86;;
69609;Laerm;56815;52.320;4.858;2024-03-22T00:09:16;35.56;31.56;47.79;;
69609;Laerm;56815;52.320;4.858;2024-03-22T00:09:26;33.05;30.58;37.23;;
69609;Laerm;56815;52.320;4.858;2024-03-22T00:09:37;33.05;30.29;41.43;;
69609;Laerm;56815;52.320;4.858;2024-03-22T00:09:47;32.59;29.89;37.97;;
69609;Laerm;56815;52.320;4.858;2024-03-22T00:09:57;32.15;30.25;37.60;;
69609;Laerm;56815;52.320;4.858;2024-03-22T00:10:07;32.39;30.71;36.56;;
69609;Laerm;56815;52.320;4.858;2024-03-22T00:10:18;32.25;30.41;35.57;;
69609;Laerm;56815;52.320;4.858;2024-03-22T00:10:28;32.97;30.75;41.36;;
69609;Laerm;56815;52.320;4.858;2024-03-22T00:10:38;32.87;30.67;40.08;;
69609;Laerm;56815;52.320;4.858;2024-03-22T00:10:49;33.64;30.75;44.14;;
69609;Laerm;56815;52.320;4.858;2024-03-22T00:10:59;32.09;30.03;35.57;;
69609;Laerm;56815;52.320;4.858;2024-03-22T00:11:09;33.28;30.31;44.79;;
69609;Laerm;56815;52.320;4.858;2024-03-22T00:11:19;32.17;30.44;35.61;;
69609;Laerm;56815;52.320;4.858;2024-03-22T00:11:30;32.55;30.21;38.96;;
69609;Laerm;56815;52.320;4.858;2024-03-22T00:11:41;32.18;30.55;38.46;;
69609;Laerm;56815;52.320;4.858;2024-03-22T00:11:51;33.32;30.24;42.85;;
69609;Laerm;56815;52.320;4.858;2024-03-22T00:12:02;33.38;31.29;37.45;;
69609;Laerm;56815;52.320;4.858;2024-03-22T00:12:12;32.41;29.96;37.77;;
69609;Laerm;56815;52.320;4.858;2024-03-22T00:12:22;32.92;29.67;47.20;;
69609;Laerm;56815;52.320;4.858;2024-03-22T00:12:33;33.88;29.96;49.70;;
69609;Laerm;56815;52.320;4.858;2024-03-22T00:12:43;34.91;30.41;50.84;;
69609;Laerm;56815;52.320;4.858;2024-03-22T00:12:53;31.36;29.45;36.19;;
69609;Laerm;56815;52.320;4.858;2024-03-22T00:13:03;31.54;29.68;37.46;;
69609;Laerm;56815;52.320;4.858;2024-03-22T00:13:14;31.47;29.20;37.29;;
69609;Laerm;56815;52.320;4.858;2024-03-22T00:13:24;31.17;29.79;36.91;;
69609;Laerm;56815;52.320;4.858;2024-03-22T00:13:34;31.59;29.32;38.98;;
69609;Laerm;56815;52.320;4.858;2024-03-22T00:13:45;31.20;29.52;34.54;;
69609;Laerm;56815;52.320;4.858;2024-03-22T00:13:55;52.50;30.23;67.43;;
69609;Laerm;56815;52.320;4.858;2024-03-22T00:14:05;42.45;30.15;64.31;;
69609;Laerm;56815;52.320;4.858;2024-03-22T00:14:18;33.14;30.23;43.87;;
69609;Laerm;56815;52.320;4.858;2024-03-22T00:14:28;32.35;30.74;38.20;;
69609;Laerm;56815;52.320;4.858;2024-03-22T00:14:39;32.32;30.36;39.82;;
69609;Laerm;56815;52.320;4.858;2024-03-22T00:14:49;32.74;30.42;36.87;;
69609;Laerm;56815;52.320;4.858;2024-03-22T00:15:01;33.96;30.54;41.17;;
69609;Laerm;56815;52.320;4.858;2024-03-22T00:15:11;34.20;30.83;45.40;;
69609;Laerm;56815;52.320;4.858;2024-03-22T00:15:22;34.44;30.86;44.21;;
69609;Laerm;56815;52.320;4.858;2024-03-22T00:15:32;33.76;31.49;39.28;;
69609;Laerm;56815;52.320;4.858;2024-03-22T00:15:42;34.49;30.72;42.38;;
69609;Laerm;56815;52.320;4.858;2024-03-22T00:15:54;33.52;30.53;42.84;;
69609;Laerm;56815;52.320;4.858;2024-03-22T00:16:04;32.41;30.06;39.75;;
69609;Laerm;56815;52.320;4.858;2024-03-22T00:16:15;32.91;30.40;38.53;;
69609;Laerm;56815;52.320;4.858;2024-03-22T00:16:25;32.89;30.66;42.77;;
69609;Laerm;56815;52.320;4.858;2024-03-22T00:16:36;32.35;30.52;37.66;;
69609;Laerm;56815;52.320;4.858;2024-03-22T00:16:46;32.63;30.06;41.45;;
69609;Laerm;56815;52.320;4.858;2024-03-22T00:16:56;33.79;30.56;38.89;;
69609;Laerm;56815;52.320;4.858;2024-03-22T00:17:07;35.33;30.85;45.82;;
69609;Laerm;56815;52.320;4.858;2024-03-22T00:17:17;33.74;30.97;36.55;;
69609;Laerm;56815;52.320;4.858;2024-03-22T00:17:27;37.70;32.68;43.91;;
69609;Laerm;56815;52.320;4.858;2024-03-22T00:17:38;36.73;32.67;45.95;;
69609;Laerm;56815;52.320;4.858;2024-03-22T00:17:48;39.74;33.07;45.86;;
69609;Laerm;56815;52.320;4.858;2024-03-22T00:18:00;40.95;33.19;53.50;;
69609;Laerm;56815;52.320;4.858;2024-03-22T00:18:11;37.38;32.94;47.33;;
69609;Laerm;56815;52.320;4.858;2024-03-22T00:18:26;33.82;30.90;40.76;;
69609;Laerm;56815;52.320;4.858;2024-03-22T00:18:37;33.36;31.37;40.16;;
69609;Laerm;56815;52.320;4.858;2024-03-22T00:18:47;55.52;30.30;72.91;;
69609;Laerm;56815;52.320;4.858;2024-03-22T00:18:57;59.21;30.83;77.39;;
69609;Laerm;56815;52.320;4.858;2024-03-22T00:19:08;43.91;30.33;63.40;;
69609;Laerm;56815;52.320;4.858;2024-03-22T00:19:18;32.58;29.87;41.47;;
69609;Laerm;56815;52.320;4.858;2024-03-22T00:19:29;32.70;30.27;36.70;;
69609;Laerm;56815;52.320;4.858;2024-03-22T00:19:39;31.84;29.82;35.67;;
69609;Laerm;56815;52.320;4.858;2024-03-22T00:19:49;31.43;29.88;35.30;;
69609;Laerm;56815;52.320;4.858;2024-03-22T00:20:00;32.39;30.34;43.35;;
69609;Laerm;56815;52.320;4.858;2024-03-22T00:20:10;32.61;30.50;37.97;;
69609;Laerm;56815;52.320;4.858;2024-03-22T00:20:21;32.60;30.79;36.00;;
69609;Laerm;56815;52.320;4.858;2024-03-22T00:20:31;31.98;30.24;35.65;;
69609;Laerm;56815;52.320;4.858;2024-03-22T00:20:42;31.98;29.90;38.17;;
69609;Laerm;56815;52.320;4.858;2024-03-22T00:20:52;31.54;29.76;35.52;;
69609;Laerm;56815;52.320;4.858;2024-03-22T00:21:02;33.77;30.11;51.99;;
69609;Laerm;56815;52.320;4.858;2024-03-22T00:21:13;32.83;30.32;41.87;;
69609;Laerm;56815;52.320;4.858;2024-03-22T00:21:23;39.38;30.11;57.32;;
69609;Laerm;56815;52.320;4.858;2024-03-22T00:21:33;34.10;30.52;43.27;;
69609;Laerm;56815;52.320;4.858;2024-03-22T00:21:44;33.90;30.43;44.74;;
69609;Laerm;56815;52.320;4.858;2024-03-22T00:21:54;37.14;30.43;54.40;;
69609;Laerm;56815;52.320;4.858;2024-03-22T00:22:04;34.37;30.23;51.95;;
69609;Laerm;56815;52.320;4.858;2024-03-22T00:22:18;31.80;29.93;34.64;;
69609;Laerm;56815;52.320;4.858;2024-03-22T00:22:28;31.98;30.20;35.48;;
69609;Laerm;56815;52.320;4.858;2024-03-22T00:22:38;31.91;30.12;42.01;;
69609;Laerm;56815;52.320;4.858;2024-03-22T00:22:49;32.08;30.31;35.42;;
69609;Laerm;56815;52.320;4.858;2024-03-22T00:22:59;32.22;30.24;35.92;;
69609;Laerm;56815;52.320;4.858;2024-03-22T00:23:09;31.95;30.25;36.75;;
69609;Laerm;56815;52.320;4.858;2024-03-22T00:23:20;31.48;29.80;35.02;;
69609;Laerm;56815;52.320;4.858;2024-03-22T00:23:30;31.58;29.90;34.31;;
69609;Laerm;56815;52.320;4.858;2024-03-22T00:23:40;31.95;29.86;34.96;;
69609;Laerm;56815;52.320;4.858;2024-03-22T00:23:51;32.13;29.95;40.60;;
69609;Laerm;56815;52.320;4.858;2024-03-22T00:24:01;31.38;29.80;35.17;;
69609;Laerm;56815;52.320;4.858;2024-03-22T00:24:11;31.81;29.98;36.25;;
69609;Laerm;56815;52.320;4.858;2024-03-22T00:24:22;31.59;29.93;34.87;;
69609;Laerm;56815;52.320;4.858;2024-03-22T00:24:35;31.55;29.89;35.50;;
69609;Laerm;56815;52.320;4.858;2024-03-22T00:24:45;32.59;30.51;36.09;;
69609;Laerm;56815;52.320;4.858;2024-03-22T00:24:56;32.87;31.07;37.87;;
69609;Laerm;56815;52.320;4.858;2024-03-22T00:25:06;32.34;30.27;35.94;;
69609;Laerm;56815;52.320;4.858;2024-03-22T00:25:19;32.63;30.04;40.43;;
69609;Laerm;56815;52.320;4.858;2024-03-22T00:25:31;31.93;30.25;34.73;;
69609;Laerm;56815;52.320;4.858;2024-03-22T00:25:41;31.91;29.95;35.50;;
69609;Laerm;56815;52.320;4.858;2024-03-22T00:25:51;31.61;29.83;36.12;;
69609;Laerm;56815;52.320;4.858;2024-03-22T00:26:02;31.51;30.03;35.49;;
69609;Laerm;56815;52.320;4.858;2024-03-22T00:26:12;31.91;30.21;35.43;;
69609;Laerm;56815;52.320;4.858;2024-03-22T00:26:22;32.03;30.49;35.20;;
69609;Laerm;56815;52.320;4.858;2024-03-22T00:26:33;31.39;29.79;34.91;;
69609;Laerm;56815;52.320;4.858;2024-03-22T00:26:43;31.50;29.85;34.83;;
69609;Laerm;56815;52.320;4.858;2024-03-22T00:26:53;31.87;30.23;34.47;;
69609;Laerm;56815;52.320;4.858;2024-03-22T00:27:09;31.90;30.18;36.40;;
69609;Laerm;56815;52.320;4.858;2024-03-22T00:27:21;32.61;30.34;41.33;;
69609;Laerm;56815;52.320;4.858;2024-03-22T00:27:35;31.47;29.84;35.59;;
69609;Laerm;56815;52.320;4.858;2024-03-22T00:27:45;31.31;29.76;35.27;;
69609;Laerm;56815;52.320;4.858;2024-03-22T00:27:55;31.69;29.97;35.68;;
69609;Laerm;56815;52.320;4.858;2024-03-22T00:28:08;32.09;30.55;37.40;;
69609;Laerm;56815;52.320;4.858;2024-03-22T00:28:19;31.63;29.96;35.52;;
69609;Laerm;56815;52.320;4.858;2024-03-22T00:28:29;31.74;30.34;34.46;;
69609;Laerm;56815;52.320;4.858;2024-03-22T00:28:39;31.56;29.77;38.97;;
69609;Laerm;56815;52.320;4.858;2024-03-22T00:28:50;30.66;29.05;34.13;;
69609;Laerm;56815;52.320;4.858;2024-03-22T00:29:00;30.99;29.55;35.01;;
69609;Laerm;56815;52.320;4.858;2024-03-22T00:29:10;31.17;29.68;35.01;;
69609;Laerm;56815;52.320;4.858;2024-03-22T00:29:21;32.18;30.25;36.51;;
69609;Laerm;56815;52.320;4.858;2024-03-22T00:29:31;31.41;29.82;35.72;;
69609;Laerm;56815;52.320;4.858;2024-03-22T00:29:44;32.21;29.74;35.50;;
69609;Laerm;56815;52.320;4.858;2024-03-22T00:29:54;32.06;29.73;40.92;;
69609;Laerm;56815;52.320;4.858;2024-03-22T00:30:05;31.56;29.47;35.64;;
69609;Laerm;56815;52.320;4.858;2024-03-22T00:30:18;31.47;29.58;35.45;;
69609;Laerm;56815;52.320;4.858;2024-03-22T00:30:28;31.29;29.57;35.12;;
69609;Laerm;56815;52.320;4.858;2024-03-22T00:30:38;31.68;30.01;35.86;;
69609;Laerm;56815;52.320;4.858;2024-03-22T00:30:49;31.43;30.05;34.33;;
69609;Laerm;56815;52.320;4.858;2024-03-22T00:30:59;32.29;29.56;42.25;;
69609;Laerm;56815;52.320;4.858;2024-03-22T00:31:09;35.35;30.41;46.10;;
69609;Laerm;56815;52.320;4.858;2024-03-22T00:31:19;31.48;30.12;34.08;;
69609;Laerm;56815;52.320;4.858;2024-03-22T00:31:30;31.48;29.89;35.03;;
69609;Laerm;56815;52.320;4.858;2024-03-22T00:31:42;31.49;29.90;33.90;;
69609;Laerm;56815;52.320;4.858;2024-03-22T00:31:53;31.72;29.95;36.30;;
69609;Laerm;56815;52.320;4.858;2024-03-22T00:32:03;31.61;30.00;35.81;;
69609;Laerm;56815;52.320;4.858;2024-03-22T00:32:14;31.64;29.97;35.67;;
69609;Laerm;56815;52.320;4.858;2024-03-22T00:32:24;31.58;29.57;34.74;;
69609;Laerm;56815;52.320;4.858;2024-03-22T00:32:34;32.23;29.93;35.30;;
69609;Laerm;56815;52.320;4.858;2024-03-22T00:32:45;31.18;29.73;35.07;;
69609;Laerm;56815;52.320;4.858;2024-03-22T00:32:55;31.98;29.93;36.32;;
69609;Laerm;56815;52.320;4.858;2024-03-22T00:33:05;31.36;29.86;35.09;;
69609;Laerm;56815;52.320;4.858;2024-03-22T00:33:15;31.12;29.74;35.12;;
69609;Laerm;56815;52.320;4.858;2024-03-22T00:33:26;31.22;29.44;34.51;;
69609;Laerm;56815;52.320;4.858;2024-03-22T00:33:36;31.36;29.87;35.08;;
69609;Laerm;56815;52.320;4.858;2024-03-22T00:33:46;31.41;29.75;35.37;;
69609;Laerm;56815;52.320;4.858;2024-03-22T00:33:57;31.68;29.90;36.94;;
69609;Laerm;56815;52.320;4.858;2024-03-22T00:34:07;31.65;29.65;34.87;;
69609;Laerm;56815;52.320;4.858;2024-03-22T00:34:17;33.09;30.83;36.19;;
69609;Laerm;56815;52.320;4.858;2024-03-22T00:34:28;32.36;30.50;35.07;;
69609;Laerm;56815;52.320;4.858;2024-03-22T00:34:38;32.17;30.35;35.50;;
69609;Laerm;56815;52.320;4.858;2024-03-22T00:34:48;31.65;30.09;35.57;;
69609;Laerm;56815;52.320;4.858;2024-03-22T00:34:59;31.86;29.87;35.99;;
69609;Laerm;56815;52.320;4.858;2024-03-22T00:35:09;31.58;29.96;35.30;;
69609;Laerm;56815;52.320;4.858;2024-03-22T00:35:19;31.90;30.11;35.91;;
69609;Laerm;56815;52.320;4.858;2024-03-22T00:35:30;32.15;30.34;35.34;;
69609;Laerm;56815;52.320;4.858;2024-03-22T00:35:40;31.67;30.11;35.08;;
69609;Laerm;56815;52.320;4.858;2024-03-22T00:35:50;31.16;29.79;34.34;;
69609;Laerm;56815;52.320;4.858;2024-03-22T00:36:00;31.32;29.56;34.33;;
69609;Laerm;56815;52.320;4.858;2024-03-22T00:36:11;31.28;29.37;34.43;;
69609;Laerm;56815;52.320;4.858;2024-03-22T00:36:21;31.61;29.91;34.70;;
69609;Laerm;56815;52.320;4.858;2024-03-22T00:36:31;31.58;30.04;35.24;;
69609;Laerm;56815;52.320;4.858;2024-03-22T00:36:42;31.99;30.42;34.63;;
69609;Laerm;56815;52.320;4.858;2024-03-22T00:37:07;31.48;29.53;35.49;;
69609;Laerm;56815;52.320;4.858;2024-03-22T00:37:17;31.98;30.39;35.82;;
69609;Laerm;56815;52.320;4.858;2024-03-22T00:37:30;31.65;29.90;35.82;;
69609;Laerm;56815;52.320;4.858;2024-03-22T00:37:41;32.57;30.33;35.25;;
69609;Laerm;56815;52.320;4.858;2024-03-22T00:37:51;33.30;31.18;36.00;;
69609;Laerm;56815;52.320;4.858;2024-03-22T00:38:01;32.27;30.52;35.43;;
69609;Laerm;56815;52.320;4.858;2024-03-22T00:38:12;31.56;29.93;34.98;;
69609;Laerm;56815;52.320;4.858;2024-03-22T00:38:22;31.39;30.11;35.55;;
69609;Laerm;56815;52.320;4.858;2024-03-22T00:38:32;31.27;29.80;35.23;;
69609;Laerm;56815;52.320;4.858;2024-03-22T00:38:43;31.48;30.01;35.47;;
69609;Laerm;56815;52.320;4.858;2024-03-22T00:38:53;32.33;30.55;35.20;;
69609;Laerm;56815;52.320;4.858;2024-03-22T00:39:07;32.15;30.27;36.54;;
69609;Laerm;56815;52.320;4.858;2024-03-22T00:39:17;31.74;29.85;35.59;;
69609;Laerm;56815;52.320;4.858;2024-03-22T00:39:28;31.63;30.31;35.14;;
69609;Laerm;56815;52.320;4.858;2024-03-22T00:39:38;31.95;30.32;35.61;;
69609;Laerm;56815;52.320;4.858;2024-03-22T00:39:51;31.60;29.91;36.12;;
69609;Laerm;56815;52.320;4.858;2024-03-22T00:40:02;31.63;30.00;35.25;;
69609;Laerm;56815;52.320;4.858;2024-03-22T00:40:15;31.34;29.62;35.31;;
69609;Laerm;56815;52.320;4.858;2024-03-22T00:40:25;31.05;29.67;35.05;;
69609;Laerm;56815;52.320;4.858;2024-03-22T00:40:36;31.21;29.87;34.34;;
69609;Laerm;56815;52.320;4.858;2024-03-22T00:40:46;31.45;29.59;35.25;;
69609;Laerm;56815;52.320;4.858;2024-03-22T00:40:56;31.39;29.83;35.41;;
69609;Laerm;56815;52.320;4.858;2024-03-22T00:41:07;31.25;29.73;34.69;;
69609;Laerm;56815;52.320;4.858;2024-03-22T00:41:17;31.51;29.80;34.89;;
69609;Laerm;56815;52.320;4.858;2024-03-22T00:41:27;32.78;29.52;43.46;;
69609;Laerm;56815;52.320;4.858;2024-03-22T00:41:38;31.00;29.15;36.13;;
69609;Laerm;56815;52.320;4.858;2024-03-22T00:41:48;30.55;29.08;33.83;;
69609;Laerm;56815;52.320;4.858;2024-03-22T00:42:01;30.58;29.11;34.58;;
69609;Laerm;56815;52.320;4.858;2024-03-22T00:42:11;30.62;29.12;34.54;;
69609;Laerm;56815;52.320;4.858;2024-03-22T00:42:21;30.43;28.95;34.42;;
69609;Laerm;56815;52.320;4.858;2024-03-22T00:42:32;30.90;29.30;32.91;;
69609;Laerm;56815;52.320;4.858;2024-03-22T00:42:42;31.00;28.72;34.07;;
69609;Laerm;56815;52.320;4.858;2024-03-22T00:42:52;31.11;29.58;33.78;;
69609;Laerm;56815;52.320;4.858;2024-03-22T00:43:03;30.69;28.84;34.49;;
69609;Laerm;56815;52.320;4.858;2024-03-22T00:43:13;31.14;29.35;43.55;;
69609;Laerm;56815;52.320;4.858;2024-03-22T00:43:23;30.72;29.25;33.31;;
69609;Laerm;56815;52.320;4.858;2024-03-22T00:43:34;31.37;29.40;35.72;;
69609;Laerm;56815;52.320;4.858;2024-03-22T00:43:44;31.91;29.64;39.48;;
69609;Laerm;56815;52.320;4.858;2024-03-22T00:43:54;33.21;29.91;43.73;;
69609;Laerm;56815;52.320;4.858;2024-03-22T00:44:04;32.33;29.73;40.34;;
69609;Laerm;56815;52.320;4.858;2024-03-22T00:44:15;32.58;30.24;37.73;;
69609;Laerm;56815;52.320;4.858;2024-03-22T00:44:25;31.80;29.76;34.49;;
69609;Laerm;56815;52.320;4.858;2024-03-22T00:44:38;32.17;29.67;36.20;;
69609;Laerm;56815;52.320;4.858;2024-03-22T00:44:48;32.34;29.97;38.17;;
69609;Laerm;56815;52.320;4.858;2024-03-22T00:44:59;31.41;29.30;34.07;;
69609;Laerm;56815;52.320;4.858;2024-03-22T00:45:09;31.00;29.16;34.70;;
69609;Laerm;56815;52.320;4.858;2024-03-22T00:45:20;30.57;29.08;34.77;;
69609;Laerm;56815;52.320;4.858;2024-03-22T00:45:30;30.30;28.96;34.16;;
69609;Laerm;56815;52.320;4.858;2024-03-22T00:45:40;30.46;28.72;34.46;;
69609;Laerm;56815;52.320;4.858;2024-03-22T00:45:51;30.74;28.42;35.76;;
69609;Laerm;56815;52.320;4.858;2024-03-22T00:46:01;29.82;28.26;32.81;;
69609;Laerm;56815;52.320;4.858;2024-03-22T00:46:12;30.02;28.43;35.12;;
69609;Laerm;56815;52.320;4.858;2024-03-22T00:46:23;30.13;28.24;34.16;;
69609;Laerm;56815;52.320;4.858;2024-03-22T00:46:33;30.16;28.39;32.96;;
69609;Laerm;56815;52.320;4.858;2024-03-22T00:46:43;30.39;28.54;33.90;;
69609;Laerm;56815;52.320;4.858;2024-03-22T00:46:53;31.00;29.06;34.48;;
69609;Laerm;56815;52.320;4.858;2024-03-22T00:47:04;30.96;29.18;34.76;;
69609;Laerm;56815;52.320;4.858;2024-03-22T00:47:15;31.12;29.09;35.26;;
69609;Laerm;56815;52.320;4.858;2024-03-22T00:47:26;30.57;28.83;34.13;;
69609;Laerm;56815;52.320;4.858;2024-03-22T00:47:36;30.69;28.82;33.86;;
69609;Laerm;56815;52.320;4.858;2024-03-22T00:47:46;30.67;29.22;32.71;;
69609;Laerm;56815;52.320;4.858;2024-03-22T00:47:56;31.16;29.40;33.66;;
69609;Laerm;56815;52.320;4.858;2024-03-22T00:48:07;30.75;29.10;33.47;;
69609;Laerm;56815;52.320;4.858;2024-03-22T00:48:17;31.39;29.29;34.16;;
69609;Laerm;56815;52.320;4.858;2024-03-22T00:48:28;31.44;28.76;34.06;;
69609;Laerm;56815;52.320;4.858;2024-03-22T00:48:39;33.41;29.29;41.08;;
69609;Laerm;56815;52.320;4.858;2024-03-22T00:48:49;31.14;28.73;34.92;;
69609;Laerm;56815;52.320;4.858;2024-03-22T00:48:59;30.49;28.99;33.86;;
69609;Laerm;56815;52.320;4.858;2024-03-22T00:49:09;31.20;29.58;34.45;;
69609;Laerm;56815;52.320;4.858;2024-03-22T00:49:20;31.42;29.50;33.84;;
69609;Laerm;56815;52.320;4.858;2024-03-22T00:49:31;30.93;28.81;34.18;;
69609;Laerm;56815;52.320;4.858;2024-03-22T00:49:41;30.38;28.90;33.23;;
69609;Laerm;56815;52.320;4.858;2024-03-22T00:49:51;30.10;28.93;32.56;;
69609;Laerm;56815;52.320;4.858;2024-03-22T00:50:02;30.37;28.72;33.07;;
69609;Laerm;56815;52.320;4.858;2024-03-22T00:50:12;30.59;28.76;33.54;;
69609;Laerm;56815;52.320;4.858;2024-03-22T00:50:22;30.55;28.92;39.42;;
69609;Laerm;56815;52.320;4.858;2024-03-22T00:50:33;30.49;28.93;32.93;;
69609;Laerm;56815;52.320;4.858;2024-03-22T00:50:43;30.89;28.95;32.64;;
69609;Laerm;56815;52.320;4.858;2024-03-22T00:50:54;31.16;28.96;39.36;;
69609;Laerm;56815;52.320;4.858;2024-03-22T00:51:04;31.28;29.51;34.29;;
69609;Laerm;56815;52.320;4.858;2024-03-22T00:51:14;30.91;29.13;33.39;;
69609;Laerm;56815;52.320;4.858;2024-03-22T00:51:25;31.79;29.76;33.99;;
69609;Laerm;56815;52.320;4.858;2024-03-22T00:51:35;31.55;29.15;38.31;;
69609;Laerm;56815;52.320;4.858;2024-03-22T00:51:46;31.33;29.50;35.40;;
69609;Laerm;56815;52.320;4.858;2024-03-22T00:51:57;30.69;28.95;35.34;;
69609;Laerm;56815;52.320;4.858;2024-03-22T00:52:08;31.54;29.48;35.67;;
69609;Laerm;56815;52.320;4.858;2024-03-22T00:52:18;31.16;29.46;35.09;;
69609;Laerm;56815;52.320;4.858;2024-03-22T00:52:28;31.49;29.80;34.73;;
69609;Laerm;56815;52.320;4.858;2024-03-22T00:52:39;32.34;30.30;35.01;;
69609;Laerm;56815;52.320;4.858;2024-03-22T00:52:51;30.77;28.73;39.18;;
69609;Laerm;56815;52.320;4.858;2024-03-22T00:53:08;30.77;28.84;33.53;;
69609;Laerm;56815;52.320;4.858;2024-03-22T00:53:19;30.84;29.27;32.83;;
69609;Laerm;56815;52.320;4.858;2024-03-22T00:53:30;30.57;29.14;32.87;;
69609;Laerm;56815;52.320;4.858;2024-03-22T00:53:40;30.60;28.86;34.58;;
69609;Laerm;56815;52.320;4.858;2024-03-22T00:53:50;30.35;28.97;33.61;;
69609;Laerm;56815;52.320;4.858;2024-03-22T00:54:01;30.19;28.91;33.78;;
69609;Laerm;56815;52.320;4.858;2024-03-22T00:54:11;30.57;28.91;34.47;;
69609;Laerm;56815;52.320;4.858;2024-03-22T00:54:21;30.43;29.21;34.33;;
69609;Laerm;56815;52.320;4.858;2024-03-22T00:54:32;30.30;28.87;34.76;;
69609;Laerm;56815;52.320;4.858;2024-03-22T00:54:42;30.28;28.80;33.39;;
69609;Laerm;56815;52.320;4.858;2024-03-22T00:54:53;30.33;28.95;35.34;;
69609;Laerm;56815;52.320;4.858;2024-03-22T00:55:03;30.27;28.94;32.85;;
69609;Laerm;56815;52.320;4.858;2024-03-22T00:55:14;31.09;28.96;34.20;;
69609;Laerm;56815;52.320;4.858;2024-03-22T00:55:24;31.65;29.51;38.49;;
69609;Laerm;56815;52.320;4.858;2024-03-22T00:55:35;30.83;29.40;34.03;;
69609;Laerm;56815;52.320;4.858;2024-03-22T00:55:45;30.71;29.37;34.38;;
69609;Laerm;56815;52.320;4.858;2024-03-22T00:56:00;31.97;29.18;37.83;;
69609;Laerm;56815;52.320;4.858;2024-03-22T00:56:11;31.38;30.07;33.74;;
69609;Laerm;56815;52.320;4.858;2024-03-22T00:56:21;30.76;29.07;33.62;;
69609;Laerm;56815;52.320;4.858;2024-03-22T00:56:32;30.63;28.96;32.93;;
69609;Laerm;56815;52.320;4.858;2024-03-22T00:56:42;31.05;29.59;34.48;;
69609;Laerm;56815;52.320;4.858;2024-03-22T00:56:53;32.49;30.45;34.75;;
69609;Laerm;56815;52.320;4.858;2024-03-22T00:57:03;31.73;29.84;34.55;;
69609;Laerm;56815;52.320;4.858;2024-03-22T00:57:13;31.76;29.76;34.97;;
69609;Laerm;56815;52.320;4.858;2024-03-22T00:57:24;30.88;29.20;33.70;;
69609;Laerm;56815;52.320;4.858;2024-03-22T00:57:34;30.58;28.95;33.66;;
69609;Laerm;56815;52.320;4.858;2024-03-22T00:57:44;30.17;28.68;33.99;;
69609;Laerm;56815;52.320;4.858;2024-03-22T00:57:54;29.98;28.48;33.58;;
69609;Laerm;56815;52.320;4.858;2024-03-22T00:58:05;29.90;28.49;33.21;;
69609;Laerm;56815;52.320;4.858;2024-03-22T00:58:15;29.89;28.62;33.95;;
69609;Laerm;56815;52.320;4.858;2024-03-22T00:58:26;29.94;28.57;34.07;;
69609;Laerm;56815;52.320;4.858;2024-03-22T00:58:36;30.04;28.27;32.59;;
69609;Laerm;56815;52.320;4.858;2024-03-22T00:58:47;30.16;28.60;33.35;;
69609;Laerm;56815;52.320;4.858;2024-03-22T00:58:57;30.41;28.61;36.19;;
69609;Laerm;56815;52.320;4.858;2024-03-22T00:59:08;30.22;28.84;35.17;;
69609;Laerm;56815;52.320;4.858;2024-03-22T00:59:18;30.87;29.30;37.01;;
69609;Laerm;56815;52.320;4.858;2024-03-22T00:59:28;30.59;28.60;33.31;;